createdAt,value
2023-04-05T00:01:50.133Z,99108.00
2023-04-05T00:04:21.181Z,99112.00
2023-04-05T00:06:52.878Z,99104.00
2023-04-05T00:09:20.828Z,99105.00
2023-04-05T00:11:48.139Z,99107.00
2023-04-05T00:14:15.322Z,99104.00
2023-04-05T00:16:42.153Z,99106.00
2023-04-05T00:19:11.081Z,99097.00
2023-04-05T00:21:39.300Z,99104.00
2023-04-05T00:24:06.203Z,99088.00
2023-04-05T00:26:32.701Z,99093.00
2023-04-05T00:28:59.215Z,99091.00
2023-04-05T00:31:25.775Z,99084.00
2023-04-05T00:33:52.276Z,99079.00
2023-04-05T00:36:20.331Z,99083.00
2023-04-05T00:38:48.159Z,99086.00
2023-04-05T00:41:15.230Z,99087.00
2023-04-05T00:43:42.105Z,99076.00
2023-04-05T00:46:09.526Z,99079.00
2023-04-05T00:48:36.384Z,99073.00
2023-04-05T00:51:03.207Z,99071.00
2023-04-05T00:53:31.696Z,99069.00
2023-04-05T00:55:58.494Z,99074.00
2023-04-05T00:58:25.114Z,99069.00
2023-04-05T01:01:13.841Z,99072.00
2023-04-05T01:03:46.995Z,99071.00
2023-04-05T01:06:28.441Z,99074.00
2023-04-05T01:09:17.796Z,99066.00
2023-04-05T01:11:47.241Z,99068.00
2023-04-05T01:14:14.089Z,99061.00
2023-04-05T01:16:40.677Z,99066.00
2023-04-05T01:19:09.959Z,99051.00
2023-04-05T01:21:39.392Z,99048.00
2023-04-05T01:24:34.058Z,99054.00
2023-04-05T01:27:19.328Z,99053.00
2023-04-05T01:30:04.478Z,99048.00
2023-04-05T01:32:37.160Z,99051.00
2023-04-05T01:35:26.767Z,99043.00
2023-04-05T01:37:59.484Z,99043.00
2023-04-05T01:40:26.143Z,99043.00
2023-04-05T01:42:52.661Z,99044.00
2023-04-05T01:45:19.277Z,99044.00
2023-04-05T01:47:45.859Z,99048.00
2023-04-05T01:50:12.785Z,99052.00
2023-04-05T01:52:39.265Z,99052.00
2023-04-05T01:55:06.279Z,99053.00
2023-04-05T01:57:32.794Z,99036.00
2023-04-05T01:59:59.259Z,99043.00
2023-04-05T02:02:26.846Z,99041.00
2023-04-05T02:04:54.418Z,99036.00
2023-04-05T02:07:22.292Z,99034.00
2023-04-05T02:09:48.842Z,99033.00
2023-04-05T02:12:15.484Z,99030.00
2023-04-05T02:14:41.999Z,99038.00
2023-04-05T02:17:08.660Z,99029.00
2023-04-05T02:19:40.939Z,99027.00
2023-04-05T02:22:08.447Z,99026.00
2023-04-05T02:24:35.284Z,99026.00
2023-04-05T02:27:01.785Z,99016.00
2023-04-05T02:29:28.509Z,99010.00
2023-04-05T02:31:55.370Z,99013.00
2023-04-05T02:34:22.892Z,99015.00
2023-04-05T02:36:52.571Z,99021.00
2023-04-05T02:39:19.289Z,99014.00
2023-04-05T02:41:46.318Z,99016.00
2023-04-05T02:44:13.323Z,99018.00
2023-04-05T02:46:40.479Z,99009.00
2023-04-05T02:49:07.033Z,99010.00
2023-04-05T02:51:35.614Z,99005.00
2023-04-05T02:54:06.523Z,98999.00
2023-04-05T02:56:35.738Z,99005.00
2023-04-05T02:59:07.715Z,99003.00
2023-04-05T03:01:36.344Z,99005.00
2023-04-05T03:04:03.732Z,99007.00
2023-04-05T03:06:31.630Z,99001.00
2023-04-05T03:08:59.213Z,99004.00
2023-04-05T03:11:26.702Z,98997.00
2023-04-05T03:13:57.517Z,98997.00
2023-04-05T03:16:34.516Z,98989.00
2023-04-05T03:19:08.019Z,98988.00
2023-04-05T03:21:37.588Z,98998.00
2023-04-05T03:24:11.437Z,98994.00
2023-04-05T03:26:40.851Z,98998.00
2023-04-05T03:29:07.758Z,98994.00
2023-04-05T03:31:37.639Z,98994.00
2023-04-05T03:34:07.980Z,98992.00
2023-04-05T03:36:42.375Z,99001.00
2023-04-05T03:39:17.603Z,98991.00
2023-04-05T03:41:44.164Z,99005.00
2023-04-05T03:44:11.820Z,99000.00
2023-04-05T03:46:38.519Z,99005.00
2023-04-05T03:49:07.342Z,99004.00
2023-04-05T03:51:33.881Z,99001.00
2023-04-05T03:54:00.484Z,99002.00
2023-04-05T03:56:32.702Z,98987.00
2023-04-05T03:59:07.016Z,98995.00
2023-04-05T04:01:33.640Z,98994.00
2023-04-05T04:04:00.426Z,98985.00
2023-04-05T04:06:27.660Z,98989.00
2023-04-05T04:08:54.492Z,98986.00
2023-04-05T04:11:21.102Z,98989.00
2023-04-05T04:13:47.968Z,98985.00
2023-04-05T04:16:33.004Z,98983.00
2023-04-05T04:19:30.866Z,98990.00
2023-04-05T04:22:20.544Z,98994.00
2023-04-05T04:25:11.524Z,98980.00
2023-04-05T04:28:07.897Z,98995.00
2023-04-05T04:30:47.614Z,98999.00
2023-04-05T04:33:46.472Z,98990.00
2023-04-05T04:36:13.812Z,98987.00
2023-04-05T04:38:53.442Z,98985.00
2023-04-05T04:41:38.228Z,98985.00
2023-04-05T04:44:07.516Z,98981.00
2023-04-05T04:46:56.997Z,98995.00
2023-04-05T04:49:47.171Z,98999.00
2023-04-05T04:52:13.641Z,98993.00
2023-04-05T04:54:42.596Z,98997.00
2023-04-05T04:57:09.199Z,98992.00
2023-04-05T04:59:35.768Z,98983.00
2023-04-05T05:02:04.261Z,98994.00
2023-04-05T05:04:31.680Z,98995.00
2023-04-05T05:06:58.216Z,98991.00
2023-04-05T05:09:25.229Z,98998.00
2023-04-05T05:11:59.361Z,98994.00
2023-04-05T05:14:25.846Z,99005.00
2023-04-05T05:16:54.630Z,99008.00
2023-04-05T05:19:21.297Z,99002.00
2023-04-05T05:21:53.079Z,98993.00
2023-04-05T05:24:20.621Z,98997.00
2023-04-05T05:26:47.087Z,98991.00
2023-04-05T05:29:13.599Z,98997.00
2023-04-05T05:31:43.488Z,99001.00
2023-04-05T05:34:10.181Z,98998.00
2023-04-05T05:36:39.057Z,99005.00
2023-04-05T05:39:06.432Z,99012.00
2023-04-05T05:41:32.881Z,99004.00
2023-04-05T05:43:59.336Z,98999.00
2023-04-05T05:46:26.205Z,98996.00
2023-04-05T05:48:52.895Z,98990.00
2023-04-05T05:51:19.464Z,99002.00
2023-04-05T05:53:47.091Z,99002.00
2023-04-05T05:56:13.572Z,99013.00
2023-04-05T05:58:40.476Z,99006.00
2023-04-05T06:01:07.570Z,99004.00
2023-04-05T06:03:34.375Z,99010.00
2023-04-05T06:06:03.187Z,99015.00
2023-04-05T06:08:29.705Z,99016.00
2023-04-05T06:10:56.453Z,99016.00
2023-04-05T06:13:23.074Z,99010.00
2023-04-05T06:15:50.390Z,99015.00
2023-04-05T06:18:17.033Z,99005.00
2023-04-05T06:20:44.701Z,99005.00
2023-04-05T06:23:11.560Z,99002.00
2023-04-05T06:25:38.255Z,99013.00
2023-04-05T06:28:05.621Z,99006.00
2023-04-05T06:30:33.625Z,99009.00
2023-04-05T06:33:00.986Z,99009.00
2023-04-05T06:35:27.536Z,99007.00
2023-04-05T06:37:54.046Z,99002.00
2023-04-05T06:40:20.704Z,99003.00
2023-04-05T06:42:47.255Z,99008.00
2023-04-05T06:45:19.159Z,99001.00
2023-04-05T06:47:45.871Z,99015.00
2023-04-05T06:50:12.543Z,99011.00
2023-04-05T06:52:39.284Z,99007.00
2023-04-05T06:55:06.349Z,99007.00
2023-04-05T06:57:32.962Z,99006.00
2023-04-05T06:59:59.545Z,99005.00
2023-04-05T07:02:26.094Z,99004.00
2023-04-05T07:04:53.293Z,99008.00
2023-04-05T07:07:19.821Z,99012.00
2023-04-05T07:09:46.313Z,99011.00
2023-04-05T07:12:13.069Z,99011.00
2023-04-05T07:14:39.621Z,99017.00
2023-04-05T07:17:07.113Z,99014.00
2023-04-05T07:19:33.826Z,99005.00
2023-04-05T07:22:01.157Z,99014.00
2023-04-05T07:24:27.698Z,99015.00
2023-04-05T07:26:54.208Z,99003.00
2023-04-05T07:29:20.848Z,99018.00
2023-04-05T07:31:47.439Z,99003.00
2023-04-05T07:34:14.154Z,99005.00
2023-04-05T07:36:40.904Z,99015.00
2023-04-05T07:39:07.612Z,99012.00
2023-04-05T07:41:35.528Z,99004.00
2023-04-05T07:44:02.048Z,99019.00
2023-04-05T07:46:29.834Z,99018.00
2023-04-05T07:48:56.468Z,99017.00
2023-04-05T07:51:23.293Z,99009.00
2023-04-05T07:53:49.861Z,99024.00
2023-04-05T07:56:16.661Z,99019.00
2023-04-05T07:58:43.163Z,99028.00
2023-04-05T08:01:11.058Z,99019.00
2023-04-05T08:03:39.941Z,99014.00
2023-04-05T08:06:24.939Z,99015.00
2023-04-05T08:08:51.389Z,99015.00
2023-04-05T08:11:17.903Z,99019.00
2023-04-05T08:13:45.015Z,99014.00
2023-04-05T08:16:12.057Z,99015.00
2023-04-05T08:18:38.681Z,99008.00
2023-04-05T08:21:05.211Z,99003.00
2023-04-05T08:23:32.278Z,99006.00
2023-04-05T08:25:58.711Z,99015.00
2023-04-05T08:28:25.199Z,99001.00
2023-04-05T08:30:56.487Z,99004.00
2023-04-05T08:33:23.518Z,99002.00
2023-04-05T08:35:50.030Z,99008.00
2023-04-05T08:38:16.603Z,98998.00
2023-04-05T08:40:45.274Z,99002.00
2023-04-05T08:43:57.750Z,98997.00
2023-04-05T08:46:25.035Z,99003.00
2023-04-05T08:48:52.254Z,99001.00
2023-04-05T08:51:22.783Z,98997.00
2023-04-05T08:53:49.401Z,98998.00
2023-04-05T08:56:20.998Z,99002.00
2023-04-05T08:59:07.826Z,99002.00
2023-04-05T09:01:37.840Z,98999.00
2023-04-05T09:04:11.101Z,99004.00
2023-04-05T09:06:37.872Z,98992.00
2023-04-05T09:09:08.669Z,99004.00
2023-04-05T09:11:36.178Z,99007.00
2023-04-05T09:14:06.524Z,99004.00
2023-04-05T09:16:41.199Z,99004.00
2023-04-05T09:19:11.251Z,99004.00
2023-04-05T09:22:06.740Z,99010.00
2023-04-05T09:24:43.169Z,99000.00
2023-04-05T09:27:13.283Z,99013.00
2023-04-05T09:29:41.601Z,98992.00
2023-04-05T09:32:10.798Z,98995.00
2023-04-05T09:34:39.226Z,98996.00
2023-04-05T09:37:16.629Z,98998.00
2023-04-05T09:39:45.730Z,99002.00
2023-04-05T09:42:15.501Z,99003.00
2023-04-05T09:45:05.721Z,98999.00
2023-04-05T09:47:37.765Z,98995.00
2023-04-05T09:50:16.221Z,98999.00
2023-04-05T09:53:20.360Z,98981.00
2023-04-05T09:55:49.768Z,98992.00
2023-04-05T09:58:21.693Z,98982.00
2023-04-05T10:01:06.183Z,98987.00
2023-04-05T10:03:48.257Z,98979.00
2023-04-05T10:06:18.841Z,98982.00
2023-04-05T10:08:48.808Z,98981.00
2023-04-05T10:11:18.721Z,98976.00
2023-04-05T10:13:46.629Z,98973.00
2023-04-05T10:16:15.638Z,98975.00
2023-04-05T10:18:51.337Z,98974.00
2023-04-05T10:21:33.704Z,98968.00
2023-04-05T10:24:32.203Z,98977.00
2023-04-05T10:27:06.740Z,98973.00
2023-04-05T10:29:43.798Z,98967.00
2023-04-05T10:32:48.767Z,98968.00
2023-04-05T10:35:28.805Z,98966.00
2023-04-05T10:38:13.987Z,98964.00
2023-04-05T10:40:45.869Z,98962.00
2023-04-05T10:43:19.066Z,98966.00
2023-04-05T10:45:48.559Z,98973.00
2023-04-05T10:48:54.195Z,98966.00
2023-04-05T10:51:23.909Z,98967.00
2023-04-05T10:53:51.788Z,98963.00
2023-04-05T10:56:19.739Z,98961.00
2023-04-05T10:58:48.679Z,98968.00
2023-04-05T11:01:17.467Z,98956.00
2023-04-05T11:03:49.253Z,98955.00
2023-04-05T11:06:31.676Z,98964.00
2023-04-05T11:09:11.185Z,98947.00
2023-04-05T11:11:48.859Z,98946.00
2023-04-05T11:14:21.857Z,98952.00
2023-04-05T11:16:54.269Z,98943.00
2023-04-05T11:19:21.140Z,98951.00
2023-04-05T11:21:47.726Z,98950.00
2023-04-05T11:24:19.571Z,98947.00
2023-04-05T11:26:45.987Z,98942.00
2023-04-05T11:29:12.480Z,98942.00
2023-04-05T11:31:59.841Z,98936.00
2023-04-05T11:34:26.743Z,98938.00
2023-04-05T11:36:53.237Z,98935.00
2023-04-05T11:39:20.222Z,98934.00
2023-04-05T11:41:48.104Z,98931.00
2023-04-05T11:44:15.689Z,98932.00
2023-04-05T11:46:42.693Z,98931.00
2023-04-05T11:49:09.438Z,98923.00
2023-04-05T11:51:36.283Z,98919.00
2023-04-05T11:54:02.909Z,98913.00
2023-04-05T11:56:29.394Z,98912.00
2023-04-05T11:58:59.751Z,98918.00
2023-04-05T12:01:26.361Z,98917.00
2023-04-05T12:03:56.976Z,98927.00
2023-04-05T12:06:25.382Z,98909.00
2023-04-05T12:08:55.840Z,98910.00
2023-04-05T12:11:33.987Z,98904.00
2023-04-05T12:14:01.611Z,98913.00
2023-04-05T12:16:29.218Z,98911.00
2023-04-05T12:19:00.283Z,98905.00
2023-04-05T12:21:27.949Z,98903.00
2023-04-05T12:23:54.690Z,98903.00
2023-04-05T12:26:22.298Z,98899.00
2023-04-05T12:28:59.018Z,98894.00
2023-04-05T12:31:45.645Z,98886.00
2023-04-05T12:34:13.998Z,98888.00
2023-04-05T12:36:46.153Z,98889.00
2023-04-05T12:39:12.701Z,98886.00
2023-04-05T12:41:39.449Z,98889.00
2023-04-05T12:44:19.354Z,98882.00
2023-04-05T12:46:48.818Z,98882.00
2023-04-05T12:49:17.022Z,98881.00
2023-04-05T12:51:45.178Z,98882.00
2023-04-05T12:54:15.652Z,98879.00
2023-04-05T12:56:42.568Z,98883.00
2023-04-05T12:59:09.710Z,98883.00
2023-04-05T13:01:36.454Z,98879.00
2023-04-05T13:04:15.339Z,98867.00
2023-04-05T13:06:43.649Z,98870.00
2023-04-05T13:09:10.245Z,98869.00
2023-04-05T13:11:36.797Z,98871.00
2023-04-05T13:14:03.288Z,98860.00
2023-04-05T13:16:29.882Z,98867.00
2023-04-05T13:18:56.396Z,98867.00
2023-04-05T13:21:22.936Z,98861.00
2023-04-05T13:23:49.421Z,98851.00
2023-04-05T13:26:16.101Z,98857.00
2023-04-05T13:28:42.632Z,98849.00
2023-04-05T13:31:09.191Z,98852.00
2023-04-05T13:33:35.838Z,98852.00
2023-04-05T13:36:02.387Z,98844.00
2023-04-05T13:38:28.924Z,98840.00
2023-04-05T13:40:55.670Z,98842.00
2023-04-05T13:43:22.655Z,98843.00
2023-04-05T13:45:49.372Z,98836.00
2023-04-05T13:48:15.947Z,98830.00
2023-04-05T13:50:42.719Z,98836.00
2023-04-05T13:53:09.390Z,98830.00
2023-04-05T13:55:36.007Z,98827.00
2023-04-05T13:58:02.503Z,98823.00
2023-04-05T14:00:29.017Z,98833.00
2023-04-05T14:02:55.784Z,98836.00
2023-04-05T14:05:22.374Z,98826.00
2023-04-05T14:07:50.288Z,98829.00
2023-04-05T14:10:17.728Z,98831.00
2023-04-05T14:12:44.398Z,98826.00
2023-04-05T14:15:11.482Z,98826.00
2023-04-05T14:17:38.115Z,98832.00
2023-04-05T14:20:05.064Z,98825.00
2023-04-05T14:22:31.659Z,98822.00
2023-04-05T14:24:58.188Z,98819.00
2023-04-05T14:27:27.064Z,98810.00
2023-04-05T14:29:57.127Z,98810.00
2023-04-05T14:32:26.218Z,98812.00
2023-04-05T14:34:52.973Z,98810.00
2023-04-05T14:37:19.514Z,98804.00
2023-04-05T14:39:46.966Z,98802.00
2023-04-05T14:42:13.462Z,98801.00
2023-04-05T14:44:39.958Z,98806.00
2023-04-05T14:47:06.563Z,98798.00
2023-04-05T14:49:33.077Z,98801.00
2023-04-05T14:51:59.787Z,98791.00
2023-04-05T14:54:26.233Z,98800.00
2023-04-05T14:56:52.805Z,98796.00
2023-04-05T14:59:19.363Z,98787.00
2023-04-05T15:01:47.451Z,98782.00
2023-04-05T15:04:14.146Z,98791.00
2023-04-05T15:06:40.837Z,98786.00
2023-04-05T15:09:07.411Z,98785.00
2023-04-05T15:11:39.465Z,98788.00
2023-04-05T15:14:08.578Z,98782.00
2023-04-05T15:16:38.057Z,98786.00
2023-04-05T15:19:04.610Z,98781.00
2023-04-05T15:21:31.156Z,98786.00
2023-04-05T15:23:57.624Z,98778.00
2023-04-05T15:26:24.166Z,98776.00
2023-04-05T15:28:50.787Z,98771.00
2023-04-05T15:31:17.668Z,98772.00
2023-04-05T15:33:44.366Z,98770.00
2023-04-05T15:36:10.971Z,98780.00
2023-04-05T15:38:37.637Z,98769.00
2023-04-05T15:41:04.245Z,98764.00
2023-04-05T15:43:31.821Z,98763.00
2023-04-05T15:45:58.331Z,98768.00
2023-04-05T15:48:24.812Z,98764.00
2023-04-05T15:50:51.318Z,98771.00
2023-04-05T15:53:17.876Z,98767.00
2023-04-05T15:55:44.400Z,98762.00
2023-04-05T15:58:11.067Z,98757.00
2023-04-05T16:00:37.924Z,98764.00
2023-04-05T16:03:04.557Z,98758.00
2023-04-05T16:05:31.218Z,98757.00
2023-04-05T16:07:57.830Z,98757.00
2023-04-05T16:10:25.275Z,98752.00
2023-04-05T16:12:53.663Z,98762.00
2023-04-05T16:15:20.332Z,98750.00
2023-04-05T16:17:46.825Z,98742.00
2023-04-05T16:20:13.364Z,98745.00
2023-04-05T16:22:39.945Z,98749.00
2023-04-05T16:25:06.627Z,98750.00
2023-04-05T16:27:33.752Z,98754.00
2023-04-05T16:30:00.828Z,98744.00
2023-04-05T16:32:27.408Z,98751.00
2023-04-05T16:34:53.940Z,98741.00
2023-04-05T16:37:20.794Z,98742.00
2023-04-05T16:39:47.365Z,98749.00
2023-04-05T16:42:14.647Z,98752.00
2023-04-05T16:44:41.170Z,98752.00
2023-04-05T16:49:34.175Z,98740.00
2023-04-05T16:52:00.745Z,98745.00
2023-04-05T16:54:27.751Z,98749.00
2023-04-05T16:56:54.331Z,98743.00
2023-04-05T16:59:20.911Z,98751.00
2023-04-05T17:01:47.415Z,98744.00
2023-04-05T17:04:13.966Z,98749.00
2023-04-05T17:06:40.468Z,98751.00
2023-04-05T17:09:07.047Z,98742.00
2023-04-05T17:11:33.682Z,98740.00
2023-04-05T17:14:00.826Z,98741.00
2023-04-05T17:16:27.559Z,98742.00
2023-04-05T17:18:54.187Z,98745.00
2023-04-05T17:21:21.072Z,98750.00
2023-04-05T17:23:47.633Z,98747.00
2023-04-05T17:26:14.159Z,98750.00
2023-04-05T17:28:40.786Z,98750.00
2023-04-05T17:31:07.363Z,98753.00
2023-04-05T17:33:34.035Z,98761.00
2023-04-05T17:36:01.671Z,98762.00
2023-04-05T17:38:28.347Z,98763.00
2023-04-05T17:40:57.278Z,98759.00
2023-04-05T17:43:24.270Z,98758.00
2023-04-05T17:45:51.714Z,98757.00
2023-04-05T17:48:18.963Z,98760.00
2023-04-05T17:50:45.964Z,98751.00
2023-04-05T17:53:14.450Z,98752.00
2023-04-05T17:55:41.200Z,98755.00
2023-04-05T17:58:07.748Z,98756.00
2023-04-05T18:00:34.214Z,98756.00
2023-04-05T18:03:06.043Z,98757.00
2023-04-05T18:05:34.661Z,98758.00
2023-04-05T18:08:01.232Z,98762.00
2023-04-05T18:10:28.053Z,98759.00
2023-04-05T18:12:54.609Z,98761.00
2023-04-05T18:15:21.212Z,98764.00
2023-04-05T18:17:47.846Z,98761.00
2023-04-05T18:20:14.446Z,98764.00
2023-04-05T18:22:41.070Z,98776.00
2023-04-05T18:25:09.697Z,98777.00
2023-04-05T18:27:36.144Z,98786.00
2023-04-05T18:30:02.735Z,98787.00
2023-04-05T18:32:29.256Z,98779.00
2023-04-05T18:34:55.832Z,98787.00
2023-04-05T18:37:22.785Z,98798.00
2023-04-05T18:39:49.268Z,98796.00
2023-04-05T18:42:15.730Z,98800.00
2023-04-05T18:44:42.187Z,98800.00
2023-04-05T18:47:08.688Z,98799.00
2023-04-05T18:49:36.989Z,98805.00
2023-04-05T18:52:03.522Z,98806.00
2023-04-05T18:54:29.959Z,98815.00
2023-04-05T18:56:56.600Z,98804.00
2023-04-05T18:59:23.215Z,98809.00
2023-04-05T19:01:50.307Z,98811.00
2023-04-05T19:04:19.017Z,98821.00
2023-04-05T19:06:45.481Z,98818.00
2023-04-05T19:09:12.242Z,98818.00
2023-04-05T19:11:38.755Z,98816.00
2023-04-05T19:14:05.519Z,98815.00
2023-04-05T19:16:32.131Z,98816.00
2023-04-05T19:18:58.654Z,98815.00
2023-04-05T19:21:25.178Z,98820.00
2023-04-05T19:23:51.727Z,98818.00
2023-04-05T19:26:19.984Z,98825.00
2023-04-05T19:28:47.780Z,98819.00
2023-04-05T19:31:14.774Z,98817.00
2023-04-05T19:33:41.371Z,98823.00
2023-04-05T19:36:07.863Z,98824.00
2023-04-05T19:38:34.480Z,98826.00
2023-04-05T19:41:01.179Z,98821.00
2023-04-05T19:43:31.493Z,98826.00
2023-04-05T19:46:00.450Z,98826.00
2023-04-05T19:48:41.050Z,98819.00
2023-04-05T19:51:09.506Z,98824.00
2023-04-05T19:53:43.469Z,98823.00
2023-04-05T19:56:18.608Z,98816.00
2023-04-05T19:58:47.123Z,98816.00
2023-04-05T20:01:29.422Z,98821.00
2023-04-05T20:03:56.023Z,98810.00
2023-04-05T20:06:23.890Z,98811.00
2023-04-05T20:08:52.016Z,98811.00
2023-04-05T20:11:22.529Z,98810.00
2023-04-05T20:13:57.033Z,98812.00
2023-04-05T20:16:33.061Z,98813.00
2023-04-05T20:19:08.517Z,98809.00
2023-04-05T20:21:37.112Z,98801.00
2023-04-05T20:24:07.754Z,98804.00
2023-04-05T20:26:34.481Z,98808.00
2023-04-05T20:29:03.137Z,98809.00
2023-04-05T20:31:32.581Z,98811.00
2023-04-05T20:34:09.908Z,98806.00
2023-04-05T20:36:39.101Z,98803.00
2023-04-05T20:39:07.134Z,98806.00
2023-04-05T20:41:33.963Z,98806.00
2023-04-05T20:44:00.758Z,98806.00
2023-04-05T20:46:28.154Z,98806.00
2023-04-05T20:48:57.949Z,98800.00
2023-04-05T20:51:24.758Z,98788.00
2023-04-05T20:53:51.554Z,98795.00
2023-04-05T20:56:18.021Z,98786.00
2023-04-05T20:58:44.706Z,98798.00
2023-04-05T21:01:11.542Z,98795.00
2023-04-05T21:03:40.736Z,98794.00
2023-04-05T21:06:09.065Z,98795.00
2023-04-05T21:08:36.977Z,98796.00
2023-04-05T21:11:04.389Z,98781.00
2023-04-05T21:13:31.027Z,98784.00
2023-04-05T21:15:58.393Z,98787.00
2023-04-05T21:18:25.586Z,98793.00
2023-04-05T21:20:53.519Z,98781.00
2023-04-05T21:23:22.471Z,98781.00
2023-04-05T21:25:49.955Z,98778.00
2023-04-05T21:28:16.758Z,98780.00
2023-04-05T21:30:43.878Z,98783.00
2023-04-05T21:33:11.056Z,98793.00
2023-04-05T21:35:38.345Z,98792.00
2023-04-05T21:38:05.549Z,98781.00
2023-04-05T21:40:32.805Z,98792.00
2023-04-05T21:42:59.435Z,98794.00
2023-04-05T21:45:26.537Z,98787.00
2023-04-05T21:47:53.365Z,98785.00
2023-04-05T21:50:20.361Z,98797.00
2023-04-05T21:52:47.012Z,98795.00
2023-04-05T21:55:13.945Z,98795.00
2023-04-05T21:57:40.514Z,98792.00
2023-04-05T22:00:11.081Z,98800.00
2023-04-05T22:02:40.872Z,98794.00
2023-04-05T22:05:08.391Z,98786.00
2023-04-05T22:07:35.825Z,98809.00
2023-04-05T22:10:03.544Z,98782.00
2023-04-05T22:12:30.586Z,98788.00
2023-04-05T22:14:57.158Z,98788.00
2023-04-05T22:17:24.021Z,98788.00
2023-04-05T22:19:50.603Z,98783.00
2023-04-05T22:22:17.500Z,98787.00
2023-04-05T22:24:44.742Z,98782.00
2023-04-05T22:27:11.900Z,98791.00
2023-04-05T22:29:39.019Z,98793.00
2023-04-05T22:32:05.853Z,98785.00
2023-04-05T22:34:32.366Z,98777.00
2023-04-05T22:36:58.902Z,98775.00
2023-04-05T22:39:25.485Z,98774.00
2023-04-05T22:41:52.100Z,98772.00
2023-04-05T22:44:18.567Z,98774.00
2023-04-05T22:46:45.048Z,98772.00
2023-04-05T22:49:11.962Z,98767.00
2023-04-05T22:51:38.515Z,98770.00
2023-04-05T22:54:05.249Z,98767.00
2023-04-05T22:56:32.083Z,98767.00
2023-04-05T22:58:58.594Z,98767.00
2023-04-05T23:01:25.667Z,98769.00
2023-04-05T23:03:52.220Z,98757.00
2023-04-05T23:06:18.697Z,98762.00
2023-04-05T23:08:45.302Z,98767.00
2023-04-05T23:11:11.838Z,98757.00
2023-04-05T23:13:38.390Z,98767.00
2023-04-05T23:16:05.487Z,98764.00
2023-04-05T23:18:32.080Z,98764.00
2023-04-05T23:20:58.566Z,98765.00
2023-04-05T23:23:25.736Z,98763.00
2023-04-05T23:25:52.246Z,98763.00
2023-04-05T23:28:18.821Z,98752.00
2023-04-05T23:30:45.339Z,98764.00
2023-04-05T23:33:12.902Z,98756.00
2023-04-05T23:35:40.504Z,98745.00
2023-04-05T23:38:07.394Z,98752.00
2023-04-05T23:40:34.109Z,98757.00
2023-04-05T23:43:00.727Z,98748.00
2023-04-05T23:45:27.668Z,98745.00
2023-04-05T23:47:55.536Z,98762.00
2023-04-05T23:50:22.535Z,98744.00
2023-04-05T23:52:49.232Z,98745.00
2023-04-05T23:55:16.001Z,98745.00
2023-04-05T23:57:42.541Z,98743.00
